KINS/INS METAR and TAF weather

Enter ICAO airport designator
Station Type Date Time Source
KINS METAR 2021/07/26 13:56 UTC NOAA

KINS 261356Z AUTO 10007KT 10SM CLR 22/22 A3003 RMK AO2 SLP118 T02240217 $


Station Type Date Time Source
KINS Decoded METAR 2021/07/26 13:56 UTC NOAA

Indian Springs, Indian Springs Auxiliary AFLD Nellis AFB, NV, United States (KINS) 36-35N 115-40W
Jul 26, 2021 - 09:56 AM EDT / 2021.07.26 1356 UTC
Wind: from the E (100 degrees) at 8 MPH (7 KT):0
Visibility: 10 mile(s):0
Sky conditions: clear
Temperature: 72.3 F (22.4 C)
Dew Point: 71.1 F (21.7 C)
Relative Humidity: 95%
Pressure (altimeter): 30.03 in. Hg (1016 hPa)
ob: KINS 261356Z AUTO 10007KT 10SM CLR 22/22 A3003 RMK AO2 SLP118 T02240217
cycle: 14

Station Type Date Time Source
KINS TAF 2021/07/26 13:59 UTC NOAA

TAF KINS 261255Z 2613/2719 VRB06KT 9999 SCT100 BKN180 QNH3002INS
BECMG 2618/2619 13015G25KT 9999 SCT090 BKN120 510009 QNH3001INS TS OMTNS
TEMPO 2621/2701 VRB20G35KT VCTS BKN080CB
BECMG 2700/2701 24012G18KT 9999 SCT090 BKN160 QNH3001INS
BECMG 2706/2707 VRB06KT 9999 SCT090 BKN160 QNH3008INS
BECMG 2717/2718 10009KT 9999 FEW090 SCT170 QNH3012INS TX28/2619Z TN22/2613Z

Example: see airport list